sensor_id;sensor_type;location;lat;lon;timestamp;temperature;humidity
43991;DHT22;29654;50.784;20.604;2023-04-28T00:02:56;8.30;45.50
43991;DHT22;29654;50.784;20.604;2023-04-28T00:07:58;8.30;45.50
43991;DHT22;29654;50.784;20.604;2023-04-28T00:13:02;8.20;45.60
43991;DHT22;29654;50.784;20.604;2023-04-28T00:18:05;8.20;45.60
43991;DHT22;29654;50.784;20.604;2023-04-28T00:23:07;8.10;45.60
43991;DHT22;29654;50.784;20.604;2023-04-28T00:28:11;8.00;45.70
43991;DHT22;29654;50.784;20.604;2023-04-28T00:33:14;8.00;45.90
43991;DHT22;29654;50.784;20.604;2023-04-28T00:38:16;8.00;46.00
43991;DHT22;29654;50.784;20.604;2023-04-28T00:43:20;7.90;46.10
43991;DHT22;29654;50.784;20.604;2023-04-28T00:48:23;7.90;46.20
43991;DHT22;29654;50.784;20.604;2023-04-28T00:53:26;7.90;46.30
43991;DHT22;29654;50.784;20.604;2023-04-28T00:58:30;8.00;46.60
43991;DHT22;29654;50.784;20.604;2023-04-28T01:03:35;8.00;46.80
43991;DHT22;29654;50.784;20.604;2023-04-28T01:08:39;8.10;46.80
43991;DHT22;29654;50.784;20.604;2023-04-28T01:13:49;8.10;46.80
43991;DHT22;29654;50.784;20.604;2023-04-28T01:18:53;8.20;47.10
43991;DHT22;29654;50.784;20.604;2023-04-28T01:23:58;8.20;47.00
43991;DHT22;29654;50.784;20.604;2023-04-28T01:29:00;8.30;47.20
43991;DHT22;29654;50.784;20.604;2023-04-28T01:34:03;8.30;47.20
43991;DHT22;29654;50.784;20.604;2023-04-28T01:39:07;8.40;47.20
43991;DHT22;29654;50.784;20.604;2023-04-28T01:44:10;8.40;47.20
43991;DHT22;29654;50.784;20.604;2023-04-28T01:49:13;8.40;47.10
43991;DHT22;29654;50.784;20.604;2023-04-28T01:54:17;8.40;47.80
43991;DHT22;29654;50.784;20.604;2023-04-28T01:59:19;8.50;47.30
43991;DHT22;29654;50.784;20.604;2023-04-28T02:04:22;8.50;47.20
43991;DHT22;29654;50.784;20.604;2023-04-28T02:09:26;8.50;47.20
43991;DHT22;29654;50.784;20.604;2023-04-28T02:14:32;8.50;47.10
43991;DHT22;29654;50.784;20.604;2023-04-28T02:19:34;8.50;47.10
43991;DHT22;29654;50.784;20.604;2023-04-28T02:24:41;8.50;47.10
43991;DHT22;29654;50.784;20.604;2023-04-28T02:29:44;8.40;47.20
43991;DHT22;29654;50.784;20.604;2023-04-28T02:34:51;8.40;47.10
43991;DHT22;29654;50.784;20.604;2023-04-28T02:39:55;8.40;47.20
43991;DHT22;29654;50.784;20.604;2023-04-28T02:44:58;8.40;47.40
43991;DHT22;29654;50.784;20.604;2023-04-28T02:50:01;8.40;47.30
43991;DHT22;29654;50.784;20.604;2023-04-28T02:55:06;8.40;47.30
43991;DHT22;29654;50.784;20.604;2023-04-28T03:00:10;8.30;47.40
43991;DHT22;29654;50.784;20.604;2023-04-28T03:05:19;8.30;47.40
43991;DHT22;29654;50.784;20.604;2023-04-28T03:10:25;8.30;47.40
43991;DHT22;29654;50.784;20.604;2023-04-28T03:15:27;8.30;47.50
43991;DHT22;29654;50.784;20.604;2023-04-28T03:20:30;8.20;47.40
43991;DHT22;29654;50.784;20.604;2023-04-28T03:25:34;8.20;47.50
43991;DHT22;29654;50.784;20.604;2023-04-28T03:30:37;8.10;47.50
43991;DHT22;29654;50.784;20.604;2023-04-28T03:35:39;8.10;47.70
43991;DHT22;29654;50.784;20.604;2023-04-28T03:40:43;8.10;47.70
43991;DHT22;29654;50.784;20.604;2023-04-28T03:45:49;8.10;48.00
43991;DHT22;29654;50.784;20.604;2023-04-28T03:50:51;8.00;48.00
43991;DHT22;29654;50.784;20.604;2023-04-28T03:55:55;8.10;48.10
43991;DHT22;29654;50.784;20.604;2023-04-28T04:00:58;8.20;48.40
43991;DHT22;29654;50.784;20.604;2023-04-28T04:06:01;8.20;49.00
43991;DHT22;29654;50.784;20.604;2023-04-28T04:11:05;8.30;48.50
43991;DHT22;29654;50.784;20.604;2023-04-28T04:16:09;8.40;48.60
43991;DHT22;29654;50.784;20.604;2023-04-28T04:21:11;8.60;48.60
43991;DHT22;29654;50.784;20.604;2023-04-28T04:26:16;8.70;48.50
43991;DHT22;29654;50.784;20.604;2023-04-28T04:31:18;8.80;48.60
43991;DHT22;29654;50.784;20.604;2023-04-28T04:36:22;9.00;48.60
43991;DHT22;29654;50.784;20.604;2023-04-28T04:41:26;9.10;48.70
43991;DHT22;29654;50.784;20.604;2023-04-28T04:46:46;9.30;49.00
43991;DHT22;29654;50.784;20.604;2023-04-28T04:51:50;9.60;48.90
43991;DHT22;29654;50.784;20.604;2023-04-28T04:56:54;9.80;49.00
43991;DHT22;29654;50.784;20.604;2023-04-28T05:02:16;10.10;49.70
43991;DHT22;29654;50.784;20.604;2023-04-28T05:07:19;10.40;49.10
43991;DHT22;29654;50.784;20.604;2023-04-28T05:12:25;10.70;49.10
43991;DHT22;29654;50.784;20.604;2023-04-28T05:17:27;11.10;48.90
43991;DHT22;29654;50.784;20.604;2023-04-28T05:22:32;11.40;48.70
43991;DHT22;29654;50.784;20.604;2023-04-28T05:27:36;11.70;48.60
43991;DHT22;29654;50.784;20.604;2023-04-28T05:32:40;12.00;48.60
43991;DHT22;29654;50.784;20.604;2023-04-28T05:37:43;12.30;48.40
43991;DHT22;29654;50.784;20.604;2023-04-28T05:42:47;12.60;48.00
43991;DHT22;29654;50.784;20.604;2023-04-28T05:47:49;12.90;47.80
43991;DHT22;29654;50.784;20.604;2023-04-28T05:52:53;13.10;47.60
43991;DHT22;29654;50.784;20.604;2023-04-28T05:57:57;13.40;47.60
43991;DHT22;29654;50.784;20.604;2023-04-28T06:02:59;13.70;47.40
43991;DHT22;29654;50.784;20.604;2023-04-28T06:08:02;14.00;47.10
43991;DHT22;29654;50.784;20.604;2023-04-28T06:13:09;14.40;47.00
43991;DHT22;29654;50.784;20.604;2023-04-28T06:18:11;14.70;46.90
43991;DHT22;29654;50.784;20.604;2023-04-28T06:23:15;15.10;46.60
43991;DHT22;29654;50.784;20.604;2023-04-28T06:28:22;15.40;46.20
43991;DHT22;29654;50.784;20.604;2023-04-28T06:33:27;15.80;45.70
43991;DHT22;29654;50.784;20.604;2023-04-28T06:38:30;16.10;45.10
43991;DHT22;29654;50.784;20.604;2023-04-28T06:43:34;16.30;44.60
43991;DHT22;29654;50.784;20.604;2023-04-28T06:48:46;16.60;44.20
43991;DHT22;29654;50.784;20.604;2023-04-28T06:53:51;16.80;44.00
43991;DHT22;29654;50.784;20.604;2023-04-28T06:58:55;17.00;43.90
43991;DHT22;29654;50.784;20.604;2023-04-28T07:03:59;17.30;43.40
43991;DHT22;29654;50.784;20.604;2023-04-28T07:09:01;17.60;43.10
43991;DHT22;29654;50.784;20.604;2023-04-28T07:14:05;17.70;42.40
43991;DHT22;29654;50.784;20.604;2023-04-28T07:19:09;17.80;41.80
43991;DHT22;29654;50.784;20.604;2023-04-28T07:24:11;18.00;41.80
43991;DHT22;29654;50.784;20.604;2023-04-28T07:29:15;18.20;41.60
43991;DHT22;29654;50.784;20.604;2023-04-28T07:34:18;18.30;41.20
43991;DHT22;29654;50.784;20.604;2023-04-28T07:39:20;18.40;40.80
43991;DHT22;29654;50.784;20.604;2023-04-28T07:44:24;18.50;40.90
43991;DHT22;29654;50.784;20.604;2023-04-28T07:49:27;18.70;40.70
43991;DHT22;29654;50.784;20.604;2023-04-28T07:54:31;18.90;40.30
43991;DHT22;29654;50.784;20.604;2023-04-28T07:59:35;19.20;40.10
43991;DHT22;29654;50.784;20.604;2023-04-28T08:04:37;19.40;39.60
43991;DHT22;29654;50.784;20.604;2023-04-28T08:09:40;19.60;39.40
43991;DHT22;29654;50.784;20.604;2023-04-28T08:14:48;19.80;39.20
43991;DHT22;29654;50.784;20.604;2023-04-28T08:19:50;20.10;38.40
43991;DHT22;29654;50.784;20.604;2023-04-28T08:24:53;20.20;38.40
43991;DHT22;29654;50.784;20.604;2023-04-28T08:29:57;20.30;38.20
43991;DHT22;29654;50.784;20.604;2023-04-28T08:35:00;20.40;37.50
43991;DHT22;29654;50.784;20.604;2023-04-28T08:40:04;20.50;37.60
43991;DHT22;29654;50.784;20.604;2023-04-28T08:45:12;20.60;37.30
43991;DHT22;29654;50.784;20.604;2023-04-28T08:50:18;20.70;36.30
43991;DHT22;29654;50.784;20.604;2023-04-28T08:55:23;20.70;36.10
43991;DHT22;29654;50.784;20.604;2023-04-28T09:00:27;20.70;36.40
43991;DHT22;29654;50.784;20.604;2023-04-28T09:05:30;20.70;35.90
43991;DHT22;29654;50.784;20.604;2023-04-28T09:10:32;20.80;34.60
43991;DHT22;29654;50.784;20.604;2023-04-28T09:15:37;20.80;35.60
43991;DHT22;29654;50.784;20.604;2023-04-28T09:20:41;20.80;35.50
43991;DHT22;29654;50.784;20.604;2023-04-28T09:26:01;20.90;35.60
43991;DHT22;29654;50.784;20.604;2023-04-28T09:31:21;21.10;34.80
43991;DHT22;29654;50.784;20.604;2023-04-28T09:36:28;21.30;34.20
43991;DHT22;29654;50.784;20.604;2023-04-28T09:41:37;21.50;34.50
43991;DHT22;29654;50.784;20.604;2023-04-28T09:46:42;21.70;34.30
43991;DHT22;29654;50.784;20.604;2023-04-28T09:51:45;21.80;34.40
43991;DHT22;29654;50.784;20.604;2023-04-28T09:56:49;21.90;34.30
43991;DHT22;29654;50.784;20.604;2023-04-28T10:01:53;22.00;33.70
43991;DHT22;29654;50.784;20.604;2023-04-28T10:06:57;22.10;33.60
43991;DHT22;29654;50.784;20.604;2023-04-28T10:12:00;22.20;33.60
43991;DHT22;29654;50.784;20.604;2023-04-28T10:17:05;22.20;33.70
43991;DHT22;29654;50.784;20.604;2023-04-28T10:22:28;22.40;33.20
43991;DHT22;29654;50.784;20.604;2023-04-28T10:27:41;22.50;31.50
43991;DHT22;29654;50.784;20.604;2023-04-28T10:32:46;22.60;32.60
43991;DHT22;29654;50.784;20.604;2023-04-28T10:38:05;22.70;32.30
43991;DHT22;29654;50.784;20.604;2023-04-28T10:43:10;22.60;30.80
43991;DHT22;29654;50.784;20.604;2023-04-28T10:48:14;22.50;31.70
43991;DHT22;29654;50.784;20.604;2023-04-28T10:53:17;22.40;31.50
43991;DHT22;29654;50.784;20.604;2023-04-28T10:58:32;22.30;31.70
43991;DHT22;29654;50.784;20.604;2023-04-28T11:03:48;22.30;31.70
43991;DHT22;29654;50.784;20.604;2023-04-28T11:08:51;22.30;31.30
43991;DHT22;29654;50.784;20.604;2023-04-28T11:19:38;22.20;30.70
43991;DHT22;29654;50.784;20.604;2023-04-28T11:24:54;22.20;32.00
43991;DHT22;29654;50.784;20.604;2023-04-28T11:29:58;22.30;30.90
43991;DHT22;29654;50.784;20.604;2023-04-28T11:35:03;22.30;32.40
43991;DHT22;29654;50.784;20.604;2023-04-28T11:40:09;22.40;32.10
43991;DHT22;29654;50.784;20.604;2023-04-28T11:45:12;22.50;31.80
43991;DHT22;29654;50.784;20.604;2023-04-28T11:50:16;22.60;32.00
43991;DHT22;29654;50.784;20.604;2023-04-28T11:55:19;22.60;31.50
43991;DHT22;29654;50.784;20.604;2023-04-28T12:00:23;22.70;31.40
43991;DHT22;29654;50.784;20.604;2023-04-28T12:05:28;22.70;31.20
43991;DHT22;29654;50.784;20.604;2023-04-28T12:10:31;22.60;31.00
43991;DHT22;29654;50.784;20.604;2023-04-28T12:15:39;22.60;31.20
43991;DHT22;29654;50.784;20.604;2023-04-28T12:20:43;22.50;30.80
43991;DHT22;29654;50.784;20.604;2023-04-28T12:25:46;22.60;31.30
43991;DHT22;29654;50.784;20.604;2023-04-28T12:30:48;22.60;30.90
43991;DHT22;29654;50.784;20.604;2023-04-28T12:35:53;22.50;30.40
43991;DHT22;29654;50.784;20.604;2023-04-28T12:40:56;22.40;30.00
43991;DHT22;29654;50.784;20.604;2023-04-28T12:46:00;22.40;30.60
43991;DHT22;29654;50.784;20.604;2023-04-28T12:51:05;22.40;31.20
43991;DHT22;29654;50.784;20.604;2023-04-28T12:56:08;22.50;30.60
43991;DHT22;29654;50.784;20.604;2023-04-28T13:01:11;22.40;30.20
43991;DHT22;29654;50.784;20.604;2023-04-28T13:06:18;22.50;30.40
43991;DHT22;29654;50.784;20.604;2023-04-28T13:11:21;22.50;30.30
43991;DHT22;29654;50.784;20.604;2023-04-28T13:16:26;22.60;30.40
43991;DHT22;29654;50.784;20.604;2023-04-28T13:21:31;22.50;30.00
43991;DHT22;29654;50.784;20.604;2023-04-28T13:26:34;22.40;29.90
43991;DHT22;29654;50.784;20.604;2023-04-28T13:31:37;22.20;30.00
43991;DHT22;29654;50.784;20.604;2023-04-28T13:36:41;22.10;30.20
43991;DHT22;29654;50.784;20.604;2023-04-28T13:41:44;22.00;30.20
43991;DHT22;29654;50.784;20.604;2023-04-28T13:46:47;22.00;30.50
43991;DHT22;29654;50.784;20.604;2023-04-28T13:51:51;22.10;30.50
43991;DHT22;29654;50.784;20.604;2023-04-28T13:56:55;22.20;30.20
43991;DHT22;29654;50.784;20.604;2023-04-28T14:01:58;22.20;30.00
43991;DHT22;29654;50.784;20.604;2023-04-28T14:07:02;22.20;30.00
43991;DHT22;29654;50.784;20.604;2023-04-28T14:12:05;22.30;30.00
43991;DHT22;29654;50.784;20.604;2023-04-28T14:17:07;22.30;29.90
43991;DHT22;29654;50.784;20.604;2023-04-28T14:22:11;22.30;30.00
43991;DHT22;29654;50.784;20.604;2023-04-28T14:27:14;22.40;29.80
43991;DHT22;29654;50.784;20.604;2023-04-28T14:32:17;22.40;29.90
43991;DHT22;29654;50.784;20.604;2023-04-28T14:37:22;22.40;29.90
43991;DHT22;29654;50.784;20.604;2023-04-28T14:42:27;22.40;29.60
43991;DHT22;29654;50.784;20.604;2023-04-28T14:47:35;22.40;29.60
43991;DHT22;29654;50.784;20.604;2023-04-28T14:52:40;22.50;29.40
43991;DHT22;29654;50.784;20.604;2023-04-28T14:57:42;22.40;29.40
43991;DHT22;29654;50.784;20.604;2023-04-28T15:02:45;22.40;29.60
43991;DHT22;29654;50.784;20.604;2023-04-28T15:07:49;22.40;29.60
43991;DHT22;29654;50.784;20.604;2023-04-28T15:12:52;22.30;29.50
43991;DHT22;29654;50.784;20.604;2023-04-28T15:17:54;22.20;29.60
43991;DHT22;29654;50.784;20.604;2023-04-28T15:23:01;22.10;29.60
43991;DHT22;29654;50.784;20.604;2023-04-28T15:28:04;22.10;29.50
43991;DHT22;29654;50.784;20.604;2023-04-28T15:33:07;22.20;29.80
43991;DHT22;29654;50.784;20.604;2023-04-28T15:38:11;22.20;29.70
43991;DHT22;29654;50.784;20.604;2023-04-28T15:43:14;22.20;29.40
43991;DHT22;29654;50.784;20.604;2023-04-28T15:48:16;22.20;29.50
43991;DHT22;29654;50.784;20.604;2023-04-28T15:53:20;22.10;29.60
43991;DHT22;29654;50.784;20.604;2023-04-28T15:58:24;22.20;29.50
43991;DHT22;29654;50.784;20.604;2023-04-28T16:03:27;22.20;29.50
43991;DHT22;29654;50.784;20.604;2023-04-28T16:08:30;22.20;29.50
43991;DHT22;29654;50.784;20.604;2023-04-28T16:13:33;22.10;29.30
43991;DHT22;29654;50.784;20.604;2023-04-28T16:18:36;22.10;29.40
43991;DHT22;29654;50.784;20.604;2023-04-28T16:23:40;22.10;29.30
43991;DHT22;29654;50.784;20.604;2023-04-28T16:28:43;22.00;29.10
43991;DHT22;29654;50.784;20.604;2023-04-28T16:33:46;21.80;29.30
43991;DHT22;29654;50.784;20.604;2023-04-28T16:38:50;21.70;29.40
43991;DHT22;29654;50.784;20.604;2023-04-28T16:43:53;21.40;29.20
43991;DHT22;29654;50.784;20.604;2023-04-28T16:48:55;21.20;29.40
43991;DHT22;29654;50.784;20.604;2023-04-28T16:54:00;20.90;29.60
43991;DHT22;29654;50.784;20.604;2023-04-28T16:59:02;20.70;29.80
43991;DHT22;29654;50.784;20.604;2023-04-28T17:04:05;20.50;29.90
43991;DHT22;29654;50.784;20.604;2023-04-28T17:09:09;20.40;30.00
43991;DHT22;29654;50.784;20.604;2023-04-28T17:14:12;20.20;30.10
43991;DHT22;29654;50.784;20.604;2023-04-28T17:19:14;20.00;30.30
43991;DHT22;29654;50.784;20.604;2023-04-28T17:24:18;19.90;30.40
43991;DHT22;29654;50.784;20.604;2023-04-28T17:29:20;19.80;30.60
43991;DHT22;29654;50.784;20.604;2023-04-28T17:34:23;19.60;30.70
43991;DHT22;29654;50.784;20.604;2023-04-28T17:39:28;19.50;30.90
43991;DHT22;29654;50.784;20.604;2023-04-28T17:44:30;19.40;31.10
43991;DHT22;29654;50.784;20.604;2023-04-28T17:49:33;19.20;31.00
43991;DHT22;29654;50.784;20.604;2023-04-28T17:54:37;19.10;31.20
43991;DHT22;29654;50.784;20.604;2023-04-28T17:59:39;18.90;31.20
43991;DHT22;29654;50.784;20.604;2023-04-28T18:04:42;18.80;31.30
43991;DHT22;29654;50.784;20.604;2023-04-28T18:09:47;18.70;31.40
43991;DHT22;29654;50.784;20.604;2023-04-28T18:14:49;18.50;31.50
43991;DHT22;29654;50.784;20.604;2023-04-28T18:19:53;18.30;31.60
43991;DHT22;29654;50.784;20.604;2023-04-28T18:24:59;18.20;31.80
43991;DHT22;29654;50.784;20.604;2023-04-28T18:30:01;18.00;31.90
43991;DHT22;29654;50.784;20.604;2023-04-28T18:35:04;17.90;32.10
43991;DHT22;29654;50.784;20.604;2023-04-28T18:40:09;17.80;32.30
43991;DHT22;29654;50.784;20.604;2023-04-28T18:45:11;17.70;32.60
43991;DHT22;29654;50.784;20.604;2023-04-28T18:50:14;17.60;32.70
43991;DHT22;29654;50.784;20.604;2023-04-28T18:55:19;17.50;32.90
43991;DHT22;29654;50.784;20.604;2023-04-28T19:00:22;17.40;33.10
43991;DHT22;29654;50.784;20.604;2023-04-28T19:05:24;17.30;33.30
43991;DHT22;29654;50.784;20.604;2023-04-28T19:10:28;17.20;33.20
43991;DHT22;29654;50.784;20.604;2023-04-28T19:15:31;17.10;33.30
43991;DHT22;29654;50.784;20.604;2023-04-28T19:20:33;17.00;33.40
43991;DHT22;29654;50.784;20.604;2023-04-28T19:25:37;16.90;33.50
43991;DHT22;29654;50.784;20.604;2023-04-28T19:30:40;16.80;33.60
43991;DHT22;29654;50.784;20.604;2023-04-28T19:35:42;16.70;33.60
43991;DHT22;29654;50.784;20.604;2023-04-28T19:40:46;16.60;33.80
43991;DHT22;29654;50.784;20.604;2023-04-28T19:45:49;16.50;34.00
43991;DHT22;29654;50.784;20.604;2023-04-28T19:50:52;16.30;34.10
43991;DHT22;29654;50.784;20.604;2023-04-28T19:55:57;16.20;34.20
43991;DHT22;29654;50.784;20.604;2023-04-28T20:01:04;16.00;34.40
43991;DHT22;29654;50.784;20.604;2023-04-28T20:06:07;15.90;34.50
43991;DHT22;29654;50.784;20.604;2023-04-28T20:11:11;15.80;34.60
43991;DHT22;29654;50.784;20.604;2023-04-28T20:16:13;15.60;34.80
43991;DHT22;29654;50.784;20.604;2023-04-28T20:21:16;15.50;34.90
43991;DHT22;29654;50.784;20.604;2023-04-28T20:26:21;15.40;35.00
43991;DHT22;29654;50.784;20.604;2023-04-28T20:31:23;15.30;35.30
43991;DHT22;29654;50.784;20.604;2023-04-28T20:36:26;15.20;35.40
43991;DHT22;29654;50.784;20.604;2023-04-28T20:41:31;15.10;35.50
43991;DHT22;29654;50.784;20.604;2023-04-28T20:46:34;15.00;35.60
43991;DHT22;29654;50.784;20.604;2023-04-28T20:51:37;15.00;35.80
43991;DHT22;29654;50.784;20.604;2023-04-28T20:56:43;14.90;35.80
43991;DHT22;29654;50.784;20.604;2023-04-28T21:01:45;14.90;36.10
43991;DHT22;29654;50.784;20.604;2023-04-28T21:06:48;14.80;36.20
43991;DHT22;29654;50.784;20.604;2023-04-28T21:11:52;14.80;36.20
43991;DHT22;29654;50.784;20.604;2023-04-28T21:16:55;14.70;36.40
43991;DHT22;29654;50.784;20.604;2023-04-28T21:21:58;14.60;36.40
43991;DHT22;29654;50.784;20.604;2023-04-28T21:27:02;14.60;36.50
43991;DHT22;29654;50.784;20.604;2023-04-28T21:32:04;14.60;36.70
43991;DHT22;29654;50.784;20.604;2023-04-28T21:37:07;14.50;36.60
43991;DHT22;29654;50.784;20.604;2023-04-28T21:42:11;14.50;36.80
43991;DHT22;29654;50.784;20.604;2023-04-28T21:47:14;14.40;36.90
43991;DHT22;29654;50.784;20.604;2023-04-28T21:52:17;14.40;36.90
43991;DHT22;29654;50.784;20.604;2023-04-28T21:57:21;14.30;37.00
43991;DHT22;29654;50.784;20.604;2023-04-28T22:02:23;14.30;37.30
43991;DHT22;29654;50.784;20.604;2023-04-28T22:07:26;14.20;37.30
43991;DHT22;29654;50.784;20.604;2023-04-28T22:12:30;14.20;37.30
43991;DHT22;29654;50.784;20.604;2023-04-28T22:17:34;14.10;37.40
43991;DHT22;29654;50.784;20.604;2023-04-28T22:22:37;14.10;37.50
43991;DHT22;29654;50.784;20.604;2023-04-28T22:27:41;14.00;37.50
43991;DHT22;29654;50.784;20.604;2023-04-28T22:32:43;14.00;37.70
43991;DHT22;29654;50.784;20.604;2023-04-28T22:37:46;13.90;37.60
43991;DHT22;29654;50.784;20.604;2023-04-28T22:42:50;13.90;37.80
43991;DHT22;29654;50.784;20.604;2023-04-28T22:47:53;13.90;37.90
43991;DHT22;29654;50.784;20.604;2023-04-28T22:52:56;13.80;37.80
43991;DHT22;29654;50.784;20.604;2023-04-28T22:58:00;13.80;38.60
43991;DHT22;29654;50.784;20.604;2023-04-28T23:03:03;13.80;38.10
43991;DHT22;29654;50.784;20.604;2023-04-28T23:08:05;13.70;38.10
43991;DHT22;29654;50.784;20.604;2023-04-28T23:13:09;13.70;38.20
43991;DHT22;29654;50.784;20.604;2023-04-28T23:18:12;13.70;38.30
43991;DHT22;29654;50.784;20.604;2023-04-28T23:23:15;13.70;38.30
43991;DHT22;29654;50.784;20.604;2023-04-28T23:28:19;13.70;38.40
43991;DHT22;29654;50.784;20.604;2023-04-28T23:33:21;13.70;38.40
43991;DHT22;29654;50.784;20.604;2023-04-28T23:38:24;13.70;38.40
43991;DHT22;29654;50.784;20.604;2023-04-28T23:43:28;13.70;38.50
43991;DHT22;29654;50.784;20.604;2023-04-28T23:48:31;13.70;38.60
43991;DHT22;29654;50.784;20.604;2023-04-28T23:53:34;13.70;38.70
43991;DHT22;29654;50.784;20.604;2023-04-28T23:58:38;13.70;38.60
